sensor_id;sensor_type;location;lat;lon;timestamp;P1;durP1;ratioP1;P2;durP2;ratioP2
22160;SDS011;49035;48.812;11.762;2023-08-06T00:02:13;18.20;;;12.77;;
22160;SDS011;49035;48.812;11.762;2023-08-06T00:04:38;19.50;;;12.82;;
22160;SDS011;49035;48.812;11.762;2023-08-06T00:07:04;18.58;;;12.02;;
22160;SDS011;49035;48.812;11.762;2023-08-06T00:09:29;17.70;;;11.82;;
22160;SDS011;49035;48.812;11.762;2023-08-06T00:11:55;17.40;;;12.07;;
22160;SDS011;49035;48.812;11.762;2023-08-06T00:14:21;17.85;;;12.27;;
22160;SDS011;49035;48.812;11.762;2023-08-06T00:16:46;18.88;;;11.95;;
22160;SDS011;49035;48.812;11.762;2023-08-06T00:19:12;15.55;;;11.38;;
22160;SDS011;49035;48.812;11.762;2023-08-06T00:21:37;16.15;;;11.65;;
22160;SDS011;49035;48.812;11.762;2023-08-06T00:24:03;17.55;;;12.00;;
22160;SDS011;49035;48.812;11.762;2023-08-06T00:26:29;13.73;;;10.85;;
22160;SDS011;49035;48.812;11.762;2023-08-06T00:28:55;18.17;;;11.60;;
22160;SDS011;49035;48.812;11.762;2023-08-06T00:31:20;18.45;;;10.95;;
22160;SDS011;49035;48.812;11.762;2023-08-06T00:33:46;15.68;;;10.98;;
22160;SDS011;49035;48.812;11.762;2023-08-06T00:36:11;16.30;;;10.20;;
22160;SDS011;49035;48.812;11.762;2023-08-06T00:38:37;13.40;;;10.80;;
22160;SDS011;49035;48.812;11.762;2023-08-06T00:41:02;15.82;;;10.00;;
22160;SDS011;49035;48.812;11.762;2023-08-06T00:43:28;11.65;;;8.80;;
22160;SDS011;49035;48.812;11.762;2023-08-06T00:45:54;11.10;;;8.60;;
22160;SDS011;49035;48.812;11.762;2023-08-06T00:48:20;10.88;;;8.18;;
22160;SDS011;49035;48.812;11.762;2023-08-06T00:50:46;10.07;;;7.78;;
22160;SDS011;49035;48.812;11.762;2023-08-06T00:53:12;11.13;;;8.05;;
22160;SDS011;49035;48.812;11.762;2023-08-06T00:55:38;10.48;;;7.75;;
22160;SDS011;49035;48.812;11.762;2023-08-06T00:58:04;9.88;;;7.18;;
22160;SDS011;49035;48.812;11.762;2023-08-06T01:00:30;8.88;;;6.30;;
22160;SDS011;49035;48.812;11.762;2023-08-06T01:02:56;11.25;;;6.53;;
22160;SDS011;49035;48.812;11.762;2023-08-06T01:05:22;10.20;;;6.32;;
22160;SDS011;49035;48.812;11.762;2023-08-06T01:15:59;5.93;;;4.90;;
22160;SDS011;49035;48.812;11.762;2023-08-06T01:18:26;7.32;;;5.00;;
22160;SDS011;49035;48.812;11.762;2023-08-06T01:20:52;6.53;;;5.47;;
22160;SDS011;49035;48.812;11.762;2023-08-06T01:23:18;8.77;;;4.57;;
22160;SDS011;49035;48.812;11.762;2023-08-06T01:26:18;5.00;;;4.50;;
22160;SDS011;49035;48.812;11.762;2023-08-06T01:31:35;7.25;;;4.40;;
22160;SDS011;49035;48.812;11.762;2023-08-06T01:34:03;10.23;;;4.25;;
22160;SDS011;49035;48.812;11.762;2023-08-06T01:36:32;5.03;;;4.00;;
22160;SDS011;49035;48.812;11.762;2023-08-06T01:38:58;6.05;;;4.40;;
22160;SDS011;49035;48.812;11.762;2023-08-06T01:41:24;6.88;;;4.30;;
22160;SDS011;49035;48.812;11.762;2023-08-06T01:43:50;7.75;;;4.53;;
22160;SDS011;49035;48.812;11.762;2023-08-06T01:46:15;6.85;;;4.65;;
22160;SDS011;49035;48.812;11.762;2023-08-06T01:48:41;4.60;;;3.90;;
22160;SDS011;49035;48.812;11.762;2023-08-06T01:51:06;6.15;;;4.43;;
22160;SDS011;49035;48.812;11.762;2023-08-06T01:53:32;6.32;;;4.28;;
22160;SDS011;49035;48.812;11.762;2023-08-06T01:55:58;6.53;;;4.55;;
22160;SDS011;49035;48.812;11.762;2023-08-06T01:58:24;5.55;;;4.95;;
22160;SDS011;49035;48.812;11.762;2023-08-06T02:00:50;7.50;;;5.03;;
22160;SDS011;49035;48.812;11.762;2023-08-06T02:03:15;7.20;;;4.60;;
22160;SDS011;49035;48.812;11.762;2023-08-06T02:05:41;6.38;;;4.70;;
22160;SDS011;49035;48.812;11.762;2023-08-06T02:08:06;8.85;;;4.45;;
22160;SDS011;49035;48.812;11.762;2023-08-06T02:10:32;5.40;;;4.38;;
22160;SDS011;49035;48.812;11.762;2023-08-06T02:12:58;4.90;;;4.40;;
22160;SDS011;49035;48.812;11.762;2023-08-06T02:15:23;5.95;;;4.22;;
22160;SDS011;49035;48.812;11.762;2023-08-06T02:17:49;5.60;;;4.22;;
22160;SDS011;49035;48.812;11.762;2023-08-06T02:20:14;4.43;;;3.88;;
22160;SDS011;49035;48.812;11.762;2023-08-06T02:22:40;7.40;;;4.03;;
22160;SDS011;49035;48.812;11.762;2023-08-06T02:25:05;4.65;;;4.03;;
22160;SDS011;49035;48.812;11.762;2023-08-06T02:27:31;7.47;;;4.05;;
22160;SDS011;49035;48.812;11.762;2023-08-06T02:29:57;9.50;;;4.63;;
22160;SDS011;49035;48.812;11.762;2023-08-06T02:32:22;6.45;;;4.53;;
22160;SDS011;49035;48.812;11.762;2023-08-06T02:34:48;12.10;;;5.20;;
22160;SDS011;49035;48.812;11.762;2023-08-06T02:37:13;6.90;;;4.10;;
22160;SDS011;49035;48.812;11.762;2023-08-06T02:39:39;5.72;;;4.35;;
22160;SDS011;49035;48.812;11.762;2023-08-06T02:42:08;8.85;;;4.82;;
22160;SDS011;49035;48.812;11.762;2023-08-06T02:44:34;5.97;;;4.38;;
22160;SDS011;49035;48.812;11.762;2023-08-06T02:47:00;7.20;;;4.10;;
22160;SDS011;49035;48.812;11.762;2023-08-06T02:49:26;5.35;;;4.43;;
22160;SDS011;49035;48.812;11.762;2023-08-06T02:51:52;6.70;;;4.32;;
22160;SDS011;49035;48.812;11.762;2023-08-06T02:54:18;7.45;;;4.93;;
22160;SDS011;49035;48.812;11.762;2023-08-06T02:56:44;7.63;;;4.97;;
22160;SDS011;49035;48.812;11.762;2023-08-06T02:59:10;16.05;;;4.97;;
22160;SDS011;49035;48.812;11.762;2023-08-06T03:01:36;10.05;;;5.07;;
22160;SDS011;49035;48.812;11.762;2023-08-06T03:04:02;15.27;;;5.38;;
22160;SDS011;49035;48.812;11.762;2023-08-06T03:06:28;6.97;;;4.80;;
22160;SDS011;49035;48.812;11.762;2023-08-06T03:08:53;7.78;;;4.57;;
22160;SDS011;49035;48.812;11.762;2023-08-06T03:11:19;6.88;;;4.45;;
22160;SDS011;49035;48.812;11.762;2023-08-06T03:13:44;7.20;;;4.68;;
22160;SDS011;49035;48.812;11.762;2023-08-06T03:16:10;5.65;;;4.40;;
22160;SDS011;49035;48.812;11.762;2023-08-06T03:18:35;7.43;;;4.40;;
22160;SDS011;49035;48.812;11.762;2023-08-06T03:21:01;6.75;;;4.70;;
22160;SDS011;49035;48.812;11.762;2023-08-06T03:23:27;7.53;;;5.18;;
22160;SDS011;49035;48.812;11.762;2023-08-06T03:25:52;8.00;;;4.80;;
22160;SDS011;49035;48.812;11.762;2023-08-06T03:28:18;7.00;;;5.22;;
22160;SDS011;49035;48.812;11.762;2023-08-06T03:30:43;8.25;;;5.78;;
22160;SDS011;49035;48.812;11.762;2023-08-06T03:33:09;6.53;;;4.95;;
22160;SDS011;49035;48.812;11.762;2023-08-06T03:35:34;10.77;;;4.78;;
22160;SDS011;49035;48.812;11.762;2023-08-06T03:38:00;5.88;;;5.10;;
22160;SDS011;49035;48.812;11.762;2023-08-06T03:40:26;9.68;;;5.25;;
22160;SDS011;49035;48.812;11.762;2023-08-06T03:42:51;6.65;;;4.90;;
22160;SDS011;49035;48.812;11.762;2023-08-06T03:45:17;6.18;;;4.80;;
22160;SDS011;49035;48.812;11.762;2023-08-06T03:47:42;10.27;;;5.05;;
22160;SDS011;49035;48.812;11.762;2023-08-06T03:50:08;6.68;;;5.03;;
22160;SDS011;49035;48.812;11.762;2023-08-06T03:52:34;8.82;;;5.47;;
22160;SDS011;49035;48.812;11.762;2023-08-06T03:54:59;7.60;;;5.55;;
22160;SDS011;49035;48.812;11.762;2023-08-06T03:57:25;7.50;;;5.05;;
22160;SDS011;49035;48.812;11.762;2023-08-06T03:59:50;8.63;;;5.10;;
22160;SDS011;49035;48.812;11.762;2023-08-06T04:02:16;6.35;;;5.15;;
22160;SDS011;49035;48.812;11.762;2023-08-06T04:04:42;7.70;;;5.30;;
22160;SDS011;49035;48.812;11.762;2023-08-06T04:07:07;8.25;;;5.32;;
22160;SDS011;49035;48.812;11.762;2023-08-06T04:09:33;8.02;;;5.82;;
22160;SDS011;49035;48.812;11.762;2023-08-06T04:11:58;8.20;;;5.70;;
22160;SDS011;49035;48.812;11.762;2023-08-06T04:14:26;8.32;;;6.15;;
22160;SDS011;49035;48.812;11.762;2023-08-06T04:16:52;11.95;;;5.65;;
22160;SDS011;49035;48.812;11.762;2023-08-06T04:19:18;8.68;;;5.82;;
22160;SDS011;49035;48.812;11.762;2023-08-06T04:21:43;9.65;;;6.30;;
22160;SDS011;49035;48.812;11.762;2023-08-06T04:24:09;9.90;;;6.25;;
22160;SDS011;49035;48.812;11.762;2023-08-06T04:26:34;7.97;;;5.68;;
22160;SDS011;49035;48.812;11.762;2023-08-06T04:29:00;6.75;;;5.25;;
22160;SDS011;49035;48.812;11.762;2023-08-06T04:31:25;8.13;;;4.88;;
22160;SDS011;49035;48.812;11.762;2023-08-06T04:33:51;7.18;;;5.15;;
22160;SDS011;49035;48.812;11.762;2023-08-06T04:36:16;11.15;;;5.57;;
22160;SDS011;49035;48.812;11.762;2023-08-06T04:38:42;6.22;;;4.90;;
22160;SDS011;49035;48.812;11.762;2023-08-06T04:41:10;6.47;;;5.35;;
22160;SDS011;49035;48.812;11.762;2023-08-06T04:43:36;8.32;;;5.60;;
22160;SDS011;49035;48.812;11.762;2023-08-06T04:46:02;6.68;;;5.13;;
22160;SDS011;49035;48.812;11.762;2023-08-06T04:48:27;8.73;;;5.53;;
22160;SDS011;49035;48.812;11.762;2023-08-06T04:50:53;9.25;;;6.15;;
22160;SDS011;49035;48.812;11.762;2023-08-06T04:53:19;8.43;;;6.53;;
22160;SDS011;49035;48.812;11.762;2023-08-06T04:55:45;8.57;;;5.93;;
22160;SDS011;49035;48.812;11.762;2023-08-06T04:58:10;7.72;;;6.30;;
22160;SDS011;49035;48.812;11.762;2023-08-06T05:00:37;9.40;;;6.68;;
22160;SDS011;49035;48.812;11.762;2023-08-06T05:03:03;11.77;;;6.93;;
22160;SDS011;49035;48.812;11.762;2023-08-06T05:05:28;12.80;;;7.15;;
22160;SDS011;49035;48.812;11.762;2023-08-06T05:07:54;12.93;;;7.20;;
22160;SDS011;49035;48.812;11.762;2023-08-06T05:10:23;10.35;;;7.20;;
22160;SDS011;49035;48.812;11.762;2023-08-06T05:12:50;10.48;;;6.95;;
22160;SDS011;49035;48.812;11.762;2023-08-06T05:15:15;10.55;;;7.65;;
22160;SDS011;49035;48.812;11.762;2023-08-06T05:17:41;10.40;;;7.10;;
22160;SDS011;49035;48.812;11.762;2023-08-06T05:20:06;10.27;;;6.95;;
22160;SDS011;49035;48.812;11.762;2023-08-06T05:22:32;11.27;;;7.55;;
22160;SDS011;49035;48.812;11.762;2023-08-06T05:24:58;12.80;;;8.15;;
22160;SDS011;49035;48.812;11.762;2023-08-06T05:27:23;13.32;;;8.38;;
22160;SDS011;49035;48.812;11.762;2023-08-06T05:29:49;13.30;;;9.25;;
22160;SDS011;49035;48.812;11.762;2023-08-06T05:32:14;12.63;;;8.52;;
22160;SDS011;49035;48.812;11.762;2023-08-06T05:34:40;12.48;;;9.48;;
22160;SDS011;49035;48.812;11.762;2023-08-06T05:37:06;11.90;;;8.57;;
22160;SDS011;49035;48.812;11.762;2023-08-06T05:39:32;13.05;;;8.77;;
22160;SDS011;49035;48.812;11.762;2023-08-06T05:41:57;12.38;;;8.70;;
22160;SDS011;49035;48.812;11.762;2023-08-06T05:44:23;12.35;;;8.80;;
22160;SDS011;49035;48.812;11.762;2023-08-06T05:46:49;15.05;;;9.18;;
22160;SDS011;49035;48.812;11.762;2023-08-06T05:49:18;14.05;;;10.27;;
22160;SDS011;49035;48.812;11.762;2023-08-06T05:51:43;17.15;;;10.82;;
22160;SDS011;49035;48.812;11.762;2023-08-06T05:54:09;15.27;;;10.75;;
22160;SDS011;49035;48.812;11.762;2023-08-06T05:56:34;11.45;;;8.82;;
22160;SDS011;49035;48.812;11.762;2023-08-06T05:59:00;15.10;;;8.65;;
22160;SDS011;49035;48.812;11.762;2023-08-06T06:01:26;11.38;;;7.68;;
22160;SDS011;49035;48.812;11.762;2023-08-06T06:03:51;9.63;;;7.05;;
22160;SDS011;49035;48.812;11.762;2023-08-06T06:06:17;9.80;;;6.57;;
22160;SDS011;49035;48.812;11.762;2023-08-06T06:08:44;6.18;;;5.57;;
22160;SDS011;49035;48.812;11.762;2023-08-06T06:11:10;5.10;;;4.60;;
22160;SDS011;49035;48.812;11.762;2023-08-06T06:13:35;5.93;;;3.95;;
22160;SDS011;49035;48.812;11.762;2023-08-06T06:16:01;6.55;;;4.35;;
22160;SDS011;49035;48.812;11.762;2023-08-06T06:18:26;5.20;;;4.00;;
22160;SDS011;49035;48.812;11.762;2023-08-06T06:20:52;4.15;;;3.67;;
22160;SDS011;49035;48.812;11.762;2023-08-06T06:23:17;5.95;;;3.60;;
22160;SDS011;49035;48.812;11.762;2023-08-06T06:25:44;3.67;;;3.22;;
22160;SDS011;49035;48.812;11.762;2023-08-06T06:28:12;4.47;;;3.28;;
22160;SDS011;49035;48.812;11.762;2023-08-06T06:30:38;3.97;;;3.58;;
22160;SDS011;49035;48.812;11.762;2023-08-06T06:33:04;4.47;;;3.38;;
22160;SDS011;49035;48.812;11.762;2023-08-06T06:35:29;5.30;;;3.40;;
22160;SDS011;49035;48.812;11.762;2023-08-06T06:37:55;2.95;;;2.75;;
22160;SDS011;49035;48.812;11.762;2023-08-06T06:40:20;6.10;;;3.28;;
22160;SDS011;49035;48.812;11.762;2023-08-06T06:42:46;4.90;;;2.72;;
22160;SDS011;49035;48.812;11.762;2023-08-06T06:45:11;3.83;;;2.42;;
22160;SDS011;49035;48.812;11.762;2023-08-06T06:47:37;2.95;;;2.58;;
22160;SDS011;49035;48.812;11.762;2023-08-06T06:50:03;4.47;;;2.15;;
22160;SDS011;49035;48.812;11.762;2023-08-06T06:52:29;4.28;;;2.22;;
22160;SDS011;49035;48.812;11.762;2023-08-06T06:54:54;2.78;;;2.10;;
22160;SDS011;49035;48.812;11.762;2023-08-06T06:57:20;4.55;;;2.30;;
22160;SDS011;49035;48.812;11.762;2023-08-06T06:59:46;2.95;;;2.10;;
22160;SDS011;49035;48.812;11.762;2023-08-06T07:02:11;3.95;;;2.20;;
22160;SDS011;49035;48.812;11.762;2023-08-06T07:04:37;3.38;;;2.38;;
22160;SDS011;49035;48.812;11.762;2023-08-06T07:07:02;2.53;;;2.28;;
22160;SDS011;49035;48.812;11.762;2023-08-06T07:09:28;2.70;;;2.30;;
22160;SDS011;49035;48.812;11.762;2023-08-06T07:11:54;4.63;;;2.22;;
22160;SDS011;49035;48.812;11.762;2023-08-06T07:14:19;3.55;;;1.90;;
22160;SDS011;49035;48.812;11.762;2023-08-06T07:16:45;2.55;;;2.35;;
22160;SDS011;49035;48.812;11.762;2023-08-06T07:19:10;2.03;;;1.92;;
22160;SDS011;49035;48.812;11.762;2023-08-06T07:21:36;5.90;;;2.30;;
22160;SDS011;49035;48.812;11.762;2023-08-06T07:24:02;4.22;;;2.10;;
22160;SDS011;49035;48.812;11.762;2023-08-06T07:26:27;2.60;;;2.08;;
22160;SDS011;49035;48.812;11.762;2023-08-06T07:28:53;7.25;;;2.17;;
22160;SDS011;49035;48.812;11.762;2023-08-06T07:31:19;2.50;;;2.03;;
22160;SDS011;49035;48.812;11.762;2023-08-06T07:33:44;1.98;;;1.85;;
22160;SDS011;49035;48.812;11.762;2023-08-06T07:36:10;2.55;;;1.83;;
22160;SDS011;49035;48.812;11.762;2023-08-06T07:38:37;2.58;;;2.00;;
22160;SDS011;49035;48.812;11.762;2023-08-06T07:41:03;1.58;;;1.48;;
22160;SDS011;49035;48.812;11.762;2023-08-06T07:43:29;2.92;;;1.90;;
22160;SDS011;49035;48.812;11.762;2023-08-06T07:45:57;2.35;;;1.85;;
22160;SDS011;49035;48.812;11.762;2023-08-06T07:48:24;2.15;;;1.40;;
22160;SDS011;49035;48.812;11.762;2023-08-06T07:50:53;2.05;;;1.45;;
22160;SDS011;49035;48.812;11.762;2023-08-06T07:53:22;1.88;;;1.48;;
22160;SDS011;49035;48.812;11.762;2023-08-06T07:55:51;4.47;;;2.08;;
22160;SDS011;49035;48.812;11.762;2023-08-06T07:58:18;4.13;;;1.90;;
22160;SDS011;49035;48.812;11.762;2023-08-06T08:00:44;1.95;;;1.63;;
22160;SDS011;49035;48.812;11.762;2023-08-06T08:03:13;2.58;;;1.67;;
22160;SDS011;49035;48.812;11.762;2023-08-06T08:05:40;2.58;;;1.60;;
22160;SDS011;49035;48.812;11.762;2023-08-06T08:08:06;4.03;;;1.92;;
22160;SDS011;49035;48.812;11.762;2023-08-06T08:10:32;2.58;;;1.35;;
22160;SDS011;49035;48.812;11.762;2023-08-06T08:12:58;2.15;;;1.95;;
22160;SDS011;49035;48.812;11.762;2023-08-06T08:15:24;3.28;;;1.60;;
22160;SDS011;49035;48.812;11.762;2023-08-06T08:17:52;2.75;;;1.55;;
22160;SDS011;49035;48.812;11.762;2023-08-06T08:20:18;2.25;;;1.50;;
22160;SDS011;49035;48.812;11.762;2023-08-06T08:22:44;2.33;;;1.73;;
22160;SDS011;49035;48.812;11.762;2023-08-06T08:25:09;4.78;;;1.88;;
22160;SDS011;49035;48.812;11.762;2023-08-06T08:27:35;3.58;;;1.40;;
22160;SDS011;49035;48.812;11.762;2023-08-06T08:30:01;9.40;;;1.60;;
22160;SDS011;49035;48.812;11.762;2023-08-06T08:32:26;1.30;;;1.20;;
22160;SDS011;49035;48.812;11.762;2023-08-06T08:34:52;4.07;;;1.40;;
22160;SDS011;49035;48.812;11.762;2023-08-06T08:37:18;1.40;;;1.10;;
22160;SDS011;49035;48.812;11.762;2023-08-06T08:39:44;3.20;;;1.23;;
22160;SDS011;49035;48.812;11.762;2023-08-06T08:42:09;2.45;;;1.25;;
22160;SDS011;49035;48.812;11.762;2023-08-06T08:44:35;1.20;;;1.10;;
22160;SDS011;49035;48.812;11.762;2023-08-06T08:47:04;1.63;;;1.08;;
22160;SDS011;49035;48.812;11.762;2023-08-06T08:49:31;1.85;;;0.93;;
22160;SDS011;49035;48.812;11.762;2023-08-06T08:51:57;3.22;;;1.00;;
22160;SDS011;49035;48.812;11.762;2023-08-06T08:54:24;1.00;;;0.90;;
22160;SDS011;49035;48.812;11.762;2023-08-06T08:56:51;2.33;;;0.98;;
22160;SDS011;49035;48.812;11.762;2023-08-06T08:59:16;1.40;;;0.95;;
22160;SDS011;49035;48.812;11.762;2023-08-06T09:01:42;1.10;;;1.00;;
22160;SDS011;49035;48.812;11.762;2023-08-06T09:04:11;1.65;;;0.98;;
22160;SDS011;49035;48.812;11.762;2023-08-06T09:06:37;1.00;;;0.90;;
22160;SDS011;49035;48.812;11.762;2023-08-06T09:09:09;1.02;;;0.80;;
22160;SDS011;49035;48.812;11.762;2023-08-06T09:11:42;1.10;;;0.75;;
22160;SDS011;49035;48.812;11.762;2023-08-06T09:14:09;1.77;;;0.80;;
22160;SDS011;49035;48.812;11.762;2023-08-06T09:16:35;1.80;;;0.85;;
22160;SDS011;49035;48.812;11.762;2023-08-06T09:19:08;2.17;;;1.13;;
22160;SDS011;49035;48.812;11.762;2023-08-06T09:21:38;2.20;;;1.42;;
22160;SDS011;49035;48.812;11.762;2023-08-06T09:24:10;2.67;;;1.00;;
22160;SDS011;49035;48.812;11.762;2023-08-06T09:26:37;1.90;;;1.00;;
22160;SDS011;49035;48.812;11.762;2023-08-06T09:29:07;2.42;;;1.00;;
22160;SDS011;49035;48.812;11.762;2023-08-06T09:31:42;0.88;;;0.63;;
22160;SDS011;49035;48.812;11.762;2023-08-06T09:34:19;1.10;;;1.00;;
22160;SDS011;49035;48.812;11.762;2023-08-06T09:36:53;2.10;;;1.02;;
22160;SDS011;49035;48.812;11.762;2023-08-06T09:39:20;1.90;;;0.88;;
22160;SDS011;49035;48.812;11.762;2023-08-06T09:41:52;1.67;;;0.90;;
22160;SDS011;49035;48.812;11.762;2023-08-06T09:44:21;0.93;;;0.80;;
22160;SDS011;49035;48.812;11.762;2023-08-06T09:46:49;2.10;;;1.10;;
22160;SDS011;49035;48.812;11.762;2023-08-06T09:49:15;2.08;;;0.70;;
22160;SDS011;49035;48.812;11.762;2023-08-06T09:51:41;2.40;;;0.90;;
22160;SDS011;49035;48.812;11.762;2023-08-06T09:54:07;0.88;;;0.82;;
22160;SDS011;49035;48.812;11.762;2023-08-06T09:56:37;1.27;;;0.90;;
22160;SDS011;49035;48.812;11.762;2023-08-06T09:59:06;2.50;;;0.90;;
22160;SDS011;49035;48.812;11.762;2023-08-06T10:01:32;3.03;;;0.88;;
22160;SDS011;49035;48.812;11.762;2023-08-06T10:04:05;1.65;;;0.90;;
22160;SDS011;49035;48.812;11.762;2023-08-06T10:06:35;1.52;;;0.70;;
22160;SDS011;49035;48.812;11.762;2023-08-06T10:09:02;3.25;;;0.80;;
22160;SDS011;49035;48.812;11.762;2023-08-06T10:11:31;0.80;;;0.40;;
22160;SDS011;49035;48.812;11.762;2023-08-06T10:13:58;2.63;;;0.90;;
22160;SDS011;49035;48.812;11.762;2023-08-06T10:16:29;1.70;;;0.60;;
22160;SDS011;49035;48.812;11.762;2023-08-06T10:18:55;0.50;;;0.50;;
22160;SDS011;49035;48.812;11.762;2023-08-06T10:21:23;0.68;;;0.40;;
22160;SDS011;49035;48.812;11.762;2023-08-06T10:23:53;0.50;;;0.50;;
22160;SDS011;49035;48.812;11.762;2023-08-06T10:26:19;1.88;;;0.60;;
22160;SDS011;49035;48.812;11.762;2023-08-06T10:28:45;0.55;;;0.55;;
22160;SDS011;49035;48.812;11.762;2023-08-06T10:31:11;3.90;;;1.70;;
22160;SDS011;49035;48.812;11.762;2023-08-06T10:33:40;0.65;;;0.57;;
22160;SDS011;49035;48.812;11.762;2023-08-06T10:36:10;0.55;;;0.50;;
22160;SDS011;49035;48.812;11.762;2023-08-06T10:38:46;2.53;;;1.50;;
22160;SDS011;49035;48.812;11.762;2023-08-06T10:41:16;2.22;;;0.60;;
22160;SDS011;49035;48.812;11.762;2023-08-06T10:43:49;0.52;;;0.50;;
22160;SDS011;49035;48.812;11.762;2023-08-06T10:46:26;0.55;;;0.40;;
22160;SDS011;49035;48.812;11.762;2023-08-06T10:48:53;0.52;;;0.45;;
22160;SDS011;49035;48.812;11.762;2023-08-06T10:51:19;0.52;;;0.45;;
22160;SDS011;49035;48.812;11.762;2023-08-06T10:53:46;0.38;;;0.38;;
22160;SDS011;49035;48.812;11.762;2023-08-06T10:56:30;5.57;;;0.30;;
22160;SDS011;49035;48.812;11.762;2023-08-06T10:58:56;0.30;;;0.30;;
22160;SDS011;49035;48.812;11.762;2023-08-06T11:01:22;2.75;;;0.40;;
22160;SDS011;49035;48.812;11.762;2023-08-06T11:03:49;4.90;;;0.30;;
22160;SDS011;49035;48.812;11.762;2023-08-06T11:06:22;0.35;;;0.35;;
22160;SDS011;49035;48.812;11.762;2023-08-06T11:08:57;7.95;;;0.50;;
22160;SDS011;49035;48.812;11.762;2023-08-06T11:11:23;0.30;;;0.30;;
22160;SDS011;49035;48.812;11.762;2023-08-06T11:13:49;0.40;;;0.22;;
22160;SDS011;49035;48.812;11.762;2023-08-06T11:16:16;0.30;;;0.30;;
22160;SDS011;49035;48.812;11.762;2023-08-06T11:18:43;0.77;;;0.40;;
22160;SDS011;49035;48.812;11.762;2023-08-06T11:21:09;0.30;;;0.30;;
22160;SDS011;49035;48.812;11.762;2023-08-06T11:23:35;1.35;;;0.40;;
22160;SDS011;49035;48.812;11.762;2023-08-06T11:26:01;0.35;;;0.35;;
22160;SDS011;49035;48.812;11.762;2023-08-06T11:28:28;0.52;;;0.32;;
22160;SDS011;49035;48.812;11.762;2023-08-06T11:30:53;0.38;;;0.35;;
22160;SDS011;49035;48.812;11.762;2023-08-06T11:33:25;0.28;;;0.22;;
22160;SDS011;49035;48.812;11.762;2023-08-06T11:35:53;0.63;;;0.28;;
22160;SDS011;49035;48.812;11.762;2023-08-06T11:38:21;0.17;;;0.17;;
22160;SDS011;49035;48.812;11.762;2023-08-06T11:40:47;0.93;;;0.30;;
22160;SDS011;49035;48.812;11.762;2023-08-06T11:43:13;3.40;;;0.40;;
22160;SDS011;49035;48.812;11.762;2023-08-06T11:45:39;0.30;;;0.30;;
22160;SDS011;49035;48.812;11.762;2023-08-06T11:48:06;0.55;;;0.30;;
22160;SDS011;49035;48.812;11.762;2023-08-06T11:50:35;1.08;;;0.40;;
22160;SDS011;49035;48.812;11.762;2023-08-06T11:53:05;6.95;;;0.90;;
22160;SDS011;49035;48.812;11.762;2023-08-06T11:55:31;1.10;;;0.50;;
22160;SDS011;49035;48.812;11.762;2023-08-06T11:57:57;2.63;;;0.45;;
22160;SDS011;49035;48.812;11.762;2023-08-06T12:00:24;2.08;;;0.50;;
22160;SDS011;49035;48.812;11.762;2023-08-06T12:02:50;0.63;;;0.45;;
22160;SDS011;49035;48.812;11.762;2023-08-06T12:05:20;1.10;;;0.50;;
22160;SDS011;49035;48.812;11.762;2023-08-06T12:07:56;0.50;;;0.50;;
22160;SDS011;49035;48.812;11.762;2023-08-06T12:10:24;1.27;;;0.57;;
22160;SDS011;49035;48.812;11.762;2023-08-06T12:12:50;0.50;;;0.50;;
22160;SDS011;49035;48.812;11.762;2023-08-06T12:15:16;2.30;;;0.40;;
22160;SDS011;49035;48.812;11.762;2023-08-06T12:17:42;0.60;;;0.40;;
22160;SDS011;49035;48.812;11.762;2023-08-06T12:20:09;0.73;;;0.43;;
22160;SDS011;49035;48.812;11.762;2023-08-06T12:22:35;7.28;;;0.98;;
22160;SDS011;49035;48.812;11.762;2023-08-06T12:25:02;0.45;;;0.45;;
22160;SDS011;49035;48.812;11.762;2023-08-06T12:27:32;1.45;;;0.40;;
22160;SDS011;49035;48.812;11.762;2023-08-06T12:29:59;0.40;;;0.40;;
22160;SDS011;49035;48.812;11.762;2023-08-06T12:32:24;0.40;;;0.40;;
22160;SDS011;49035;48.812;11.762;2023-08-06T12:34:51;0.40;;;0.40;;
22160;SDS011;49035;48.812;11.762;2023-08-06T12:37:16;0.30;;;0.30;;
22160;SDS011;49035;48.812;11.762;2023-08-06T12:39:42;4.40;;;0.40;;
22160;SDS011;49035;48.812;11.762;2023-08-06T12:42:07;0.30;;;0.30;;
22160;SDS011;49035;48.812;11.762;2023-08-06T12:44:33;0.98;;;0.47;;
22160;SDS011;49035;48.812;11.762;2023-08-06T12:46:59;0.30;;;0.30;;
22160;SDS011;49035;48.812;11.762;2023-08-06T12:49:25;0.30;;;0.30;;
22160;SDS011;49035;48.812;11.762;2023-08-06T12:51:51;0.30;;;0.30;;
22160;SDS011;49035;48.812;11.762;2023-08-06T12:54:18;0.22;;;0.22;;
22160;SDS011;49035;48.812;11.762;2023-08-06T12:56:44;0.20;;;0.20;;
22160;SDS011;49035;48.812;11.762;2023-08-06T12:59:11;0.30;;;0.30;;
22160;SDS011;49035;48.812;11.762;2023-08-06T13:01:37;3.47;;;0.30;;
22160;SDS011;49035;48.812;11.762;2023-08-06T13:04:03;1.08;;;0.30;;
22160;SDS011;49035;48.812;11.762;2023-08-06T13:06:29;0.40;;;0.40;;
22160;SDS011;49035;48.812;11.762;2023-08-06T13:08:55;0.55;;;0.35;;
22160;SDS011;49035;48.812;11.762;2023-08-06T13:11:24;0.20;;;0.20;;
22160;SDS011;49035;48.812;11.762;2023-08-06T13:13:49;4.03;;;0.30;;
22160;SDS011;49035;48.812;11.762;2023-08-06T13:16:15;0.40;;;0.30;;
22160;SDS011;49035;48.812;11.762;2023-08-06T13:18:41;0.30;;;0.30;;
22160;SDS011;49035;48.812;11.762;2023-08-06T13:21:06;3.47;;;0.40;;
22160;SDS011;49035;48.812;11.762;2023-08-06T13:23:32;0.20;;;0.20;;
22160;SDS011;49035;48.812;11.762;2023-08-06T13:25:57;0.52;;;0.20;;
22160;SDS011;49035;48.812;11.762;2023-08-06T13:28:23;0.22;;;0.22;;
22160;SDS011;49035;48.812;11.762;2023-08-06T13:30:49;0.30;;;0.30;;
22160;SDS011;49035;48.812;11.762;2023-08-06T13:33:15;0.73;;;0.30;;
22160;SDS011;49035;48.812;11.762;2023-08-06T13:35:40;3.92;;;0.47;;
22160;SDS011;49035;48.812;11.762;2023-08-06T13:38:06;0.40;;;0.40;;
22160;SDS011;49035;48.812;11.762;2023-08-06T13:40:32;0.22;;;0.22;;
22160;SDS011;49035;48.812;11.762;2023-08-06T13:42:58;0.25;;;0.25;;
22160;SDS011;49035;48.812;11.762;2023-08-06T13:45:24;0.55;;;0.30;;
22160;SDS011;49035;48.812;11.762;2023-08-06T13:47:50;0.20;;;0.20;;
22160;SDS011;49035;48.812;11.762;2023-08-06T13:50:16;0.35;;;0.35;;
22160;SDS011;49035;48.812;11.762;2023-08-06T13:52:42;0.25;;;0.25;;
22160;SDS011;49035;48.812;11.762;2023-08-06T13:55:07;1.05;;;0.30;;
22160;SDS011;49035;48.812;11.762;2023-08-06T13:57:34;0.38;;;0.30;;
22160;SDS011;49035;48.812;11.762;2023-08-06T14:00:00;0.47;;;0.47;;
22160;SDS011;49035;48.812;11.762;2023-08-06T14:02:26;2.22;;;0.75;;
22160;SDS011;49035;48.812;11.762;2023-08-06T14:04:52;0.90;;;0.50;;
22160;SDS011;49035;48.812;11.762;2023-08-06T14:07:18;4.00;;;0.82;;
22160;SDS011;49035;48.812;11.762;2023-08-06T14:09:44;1.75;;;0.50;;
22160;SDS011;49035;48.812;11.762;2023-08-06T14:12:10;2.22;;;0.80;;
22160;SDS011;49035;48.812;11.762;2023-08-06T14:14:35;0.63;;;0.47;;
22160;SDS011;49035;48.812;11.762;2023-08-06T14:17:01;0.40;;;0.40;;
22160;SDS011;49035;48.812;11.762;2023-08-06T14:19:27;1.65;;;0.50;;
22160;SDS011;49035;48.812;11.762;2023-08-06T14:21:52;0.73;;;0.52;;
22160;SDS011;49035;48.812;11.762;2023-08-06T14:24:18;0.73;;;0.57;;
22160;SDS011;49035;48.812;11.762;2023-08-06T14:26:44;0.40;;;0.40;;
22160;SDS011;49035;48.812;11.762;2023-08-06T14:29:09;1.15;;;0.55;;
22160;SDS011;49035;48.812;11.762;2023-08-06T14:31:35;0.45;;;0.45;;
22160;SDS011;49035;48.812;11.762;2023-08-06T14:34:01;0.40;;;0.40;;
22160;SDS011;49035;48.812;11.762;2023-08-06T14:36:27;1.67;;;0.50;;
22160;SDS011;49035;48.812;11.762;2023-08-06T14:38:52;3.88;;;0.50;;